Ride Results

Johnny Green Memorial Ride (10-10-2015)
Ride distance: 80.0 km

Outcomes - Johnny Green Memorial Ride (10-10-2015)
Division No. of Entries Retired / DNE Completed Withdrawn Ineligible V/O Percentage Completed
HW 7 - 7 - - - 100.00%
MW 22 - 19 2 - 1 86.36%
LW 16 - 14 1 - 1 87.50%
JN 7 - 4 1 - 2 57.14%
Totals 52 - 44 4 - 4 84.62%
Results - Johnny Green Memorial Ride (10-10-2015)
No. Rider Horse Place Time Leg Speeds Total
Km/Hr
H/R bpm
Heavyweight
122 Ged Nicklason Wongawol Legend 1 (BC) 5:49:00 15.8, 12.1 13.75 38, 46, 59 (Avg:52)
109 David Campbell Awarran Park Silver Raven 2 6:35:00 13.1, 11.2 12.15 45, 39, 53 (Avg:46)
104 Kylie Williams El Raz Samurai 3 7:21:05 11.4, 10.3 10.88 55, 51, 53 (Avg:52)
272 Greg Cowen DVS Sunsilk 4 7:27:00 11.4, 10.1 10.74 55, 44, 52 (Avg:48)
126 Greg Henry Bellawongarah Sweet Riaality 5 7:48:00 10.0, 10.4 10.26 47, 45, 47 (Avg:46)
82 Mark Dunn Calypso 6 7:51:00 11.0, 9.4 10.19 35, 45, 53 (Avg:49)
29 Trenton Huxtable Samson of Glendhu 7 8:23:06 10.6, 8.6 9.54 47, 50, 58 (Avg:54)
Middleweight
101 Wendy Rand Diablo 1 4:12:00 19.1, 18.8 19.05 32, 45, 54 (Avg:49)
38 Tony Purton Beer Street Lizzy B 2 (BC) 4:19:00 18.4, 18.6 18.53 39, 48, 48 (Avg:48)
136 Kaye Mitchell Beer Street Takone 3 4:28:00 18.4, 17.3 17.91 30, 50, 50 (Avg:50)
179 Debbie Grull Lauralyn Notorious 4 5:35:00 15.8, 13.0 14.33 43, 43, 48 (Avg:45)
114 Jan Clement Wattlelea Zaharra 5 5:50:00 15.7, 12.1 13.71 42, 50, 59 (Avg:54)
92 Blaine Astell Shemali Silver Sherif 6 5:52:00 12.7, 14.6 13.64 33, 46, 47 (Avg:46)
143 Pauline Goodwin Marley Hosanna 7 5:55:00 15.3, 12.0 13.52 35, 44, 49 (Avg:46)
50 Joanne Marshall Rivergum Windchime 8 5:56:00 14.1, 12.9 13.48 42, 42, 49 (Avg:45)
P Noel Lockhart Ralvon Splendour 9 6:09:00 13.1, 12.9 13.01 31, 37, 49 (Avg:43)
77 Brad Hill Zane 10 6:10:00 13.1, 12.8 12.97 38, 45, 51 (Avg:48)
310 Flynn Miller Fine Art 11 6:10:05 13.1, 12.8 12.97 46, 41, 50 (Avg:45)
165 Danielle Taylor Christmas Lights 12 6:23:00 11.9, 13.1 12.53 34, 39, 51 (Avg:45)
110 Amanda Campbell Davlyn Park Camille 13 6:35:02 13.1, 11.2 12.15 33, 44, 55 (Avg:49)
22 Helen Astell Castlebar Dude 14 7:21:00 11.4, 10.3 10.88 32, 45, 48 (Avg:46)
21 Karen Quinn Distinctive-L-Zarin (au) 14 7:21:00 11.4, 10.3 10.88 45, 45, 52 (Avg:48)
69 Tracey Wyllie Elphyn Ripple 16 7:21:05 10.6, 11.1 10.88 38, 42, 53 (Avg:47)
227 Mary Austin Cookie 17 7:42:00 15.4, 7.8 10.39 38, 54, 50 (Avg:52)
152 Anna Feely Black Heart Othello 18 7:51:05 11.1, 9.3 10.19 33, 45, 49 (Avg:47)
70 Chels Royer AT Dial Range Raphael 19 8:10:05 10.9, 8.8 9.79 52, 39, 50 (Avg:44)
216 David Evelyn Kalody Park Eclipse Withdrawn L2 0:00:00 - - 47, 53, 56 (Avg:54)
254 Deb Wyllie AT Dial Range Yogi Lame L2 0:00:00 10.9, 8.8 - 40, 47, 60 (Avg:53)
79 Shannon Hill Glendhu Chester Withdrawn P/R 0:00:00 - - 42, 46 (Avg:46)
Lightweight
12 Anita Hutchins Castella Soldier Boy 1 (BC) 4:12:00 19.1, 18.8 19.05 39, 45, 53 (Avg:49)
298 Olivia Barnard Yondover Ridge Bee 2 4:50:00 17.5, 15.6 16.55 37, 39, 51 (Avg:45)
150 Emily Shadbolt Tanbark Banjo 2 4:50:00 17.5, 15.6 16.55 35, 42, 47 (Avg:44)
74 Felicity Perry Ace of Moravian 4 5:35:00 15.2, 13.4 14.33 37, 45, 50 (Avg:47)
203 Angie Clark Castlebar Galahad 5 5:52:00 12.9, 14.3 13.64 37, 48, 56 (Avg:52)
191 Loren Simonetta Kalody Park Zayeem 6 6:09:00 12.9, 13.0 13.01 40, 45, 59 (Avg:52)
125 Brooke Brown-Cordell Vandieman Eve 7 6:28:00 13.0, 11.7 12.37 36, 44, 47 (Avg:45)
100 Trish Smith Beaucheval Akhiran 8 6:43:00 12.7, 11.1 11.91 34, 45, 47 (Avg:46)
305 Julie Carter Kalody Park Pure Steel 9 7:05:05 11.2, 11.3 11.29 37, 41, 50 (Avg:45)
299 Christal Rizk Sbara Victory 10 7:21:07 11.4, 10.3 10.88 39, 45, 53 (Avg:49)
314 Kristy Keep Highland View Moonshine 11 7:27:02 11.4, 10.1 10.74 38, 47, 52 (Avg:49)
90 Angela Hawks Cameo Arpeggio 12 7:28:00 9.2, 12.6 10.71 34, 49, 56 (Avg:52)
253 Kelly Woodhouse Jaggah Ka 13 8:10:00 10.9, 8.8 9.80 33, 43, 55 (Avg:49)
291 Kirsty Goss Highland View Jess 14 8:23:00 10.5, 8.6 9.54 50, 46, 46 (Avg:46)
19 Sonia Hodgetts Beer Street Targa Gall or injury L2 0:00:00 10.0, 266.6 - 41, 53, 56 (Avg:54)
18 Jodi Smith Clovelly Park Arianna Withdrawn L1 0:00:00 - - 38, 44 (Avg:44)
Junior
277 Heather Colbeck Awarran Park Silver Starlite 1 (BC) 5:35:00 15.8, 13.0 14.33 34, 47, 45 (Avg:46)
226 Hayley Marshall Rowallan Aspin 2 5:56:00 14.1, 12.9 13.48 38, 45, 49 (Avg:47)
157 David Anderson Jnr Tierview Salama 3 6:28:00 13.0, 11.7 12.37 40, 47, 48 (Avg:47)
127 Jaz Hutchins Touchwarr Destiny's Pride 4 6:57:00 11.4, 11.5 11.51 42, 47, 51 (Avg:49)
308 Ella Carter Ramalea Ned Kelly Lame L2 0:00:00 11.2, 11.3 - 39, 45, 50 (Avg:47)
297 Brittany Farrell Awarran Park Jamilah Shayde Withdrawn L2 0:00:00 - - 32, 35, 52 (Avg:43)
209 Grace Huxtable Bacardi Lame L2 0:00:00 15.8, 13.0 - 36, 50, 54 (Avg:52)